createdAt,value
2017-02-20T19:20:14.302Z,7.85
2017-02-20T19:20:54.589Z,7.85
2017-02-20T19:21:36.043Z,7.95
2017-02-20T19:22:16.432Z,7.88
2017-02-20T19:22:56.927Z,7.93
2017-02-20T19:23:37.396Z,7.95
2017-02-20T19:24:18.500Z,7.85
2017-02-20T19:25:00.683Z,7.87
2017-02-20T19:25:41.134Z,7.84
2017-02-20T19:26:21.585Z,7.87
2017-02-20T19:27:02.947Z,7.84
2017-02-20T19:27:43.351Z,7.85
2017-02-20T19:28:23.837Z,7.83
2017-02-20T19:43:25.161Z,8.01
2017-02-20T19:44:05.990Z,7.98
2017-02-20T19:44:46.534Z,8.06
2017-02-20T19:45:27.201Z,8.06
2017-02-20T19:46:07.949Z,8.05
2017-02-20T19:46:49.344Z,8.08
2017-02-20T19:47:30.251Z,8.01
2017-02-20T19:48:10.816Z,7.98
2017-02-20T19:48:52.044Z,7.96
2017-02-20T20:06:22.916Z,7.95
2017-02-20T20:07:05.397Z,8.09
2017-02-20T20:07:47.153Z,8.16
2017-02-20T20:08:27.024Z,8.21
2017-02-20T20:09:07.997Z,8.23
2017-02-20T20:09:48.439Z,8.14
2017-02-20T20:10:28.953Z,8.21
2017-02-20T20:11:10.012Z,8.08
2017-02-20T20:11:50.480Z,8.06
2017-02-20T20:12:31.066Z,8.08
2017-02-20T20:13:12.425Z,8.03
2017-02-20T20:13:53.826Z,7.98
2017-02-20T20:14:35.673Z,7.99
2017-02-20T20:15:16.121Z,7.98
2017-02-20T20:15:56.576Z,7.93
2017-02-20T20:16:37.015Z,7.88
2017-02-20T20:17:18.137Z,7.83
2017-02-20T20:17:58.606Z,7.87
2017-02-20T20:18:39.101Z,7.88
2017-02-20T20:19:19.559Z,7.87
2017-02-20T20:20:00.043Z,7.81
2017-02-20T20:20:40.523Z,7.87
2017-02-20T20:21:20.993Z,7.8
2017-02-20T20:22:01.434Z,7.84
2017-02-20T20:22:42.442Z,7.87
2017-02-20T20:23:22.919Z,7.87
2017-02-20T20:24:03.372Z,7.83
2017-02-20T20:24:43.750Z,7.83
2017-02-20T20:25:24.187Z,7.84
2017-02-20T20:26:06.385Z,7.77
2017-02-20T20:26:47.354Z,7.81
2017-02-20T20:39:59.806Z,8.02
2017-02-20T20:40:40.246Z,8.11
2017-02-20T20:41:20.937Z,8.11
2017-02-20T20:42:01.400Z,8.13
2017-02-20T20:42:41.822Z,8.13
2017-02-20T20:43:22.248Z,8.13
2017-02-20T20:44:03.633Z,8.16
2017-02-20T20:44:45.560Z,8.11
2017-02-20T20:45:26.060Z,8.09
2017-02-20T20:46:06.459Z,8.11
2017-02-20T20:46:47.592Z,8.05
2017-02-20T20:47:28.022Z,8.06
2017-02-20T20:48:08.487Z,8.02
2017-02-20T20:48:49.580Z,8.05
2017-02-20T20:49:30.009Z,8.02
2017-02-20T20:50:10.425Z,8.06
2017-02-20T20:50:51.855Z,8.08
2017-02-20T20:51:33.037Z,8.02
2017-02-20T20:52:13.392Z,8.01
2017-02-20T20:52:54.795Z,8.02
2017-02-20T20:53:35.297Z,7.96
2017-02-20T20:54:16.305Z,7.99
2017-02-20T20:54:56.725Z,7.99
2017-02-20T20:55:37.129Z,8.05
2017-02-20T20:56:17.583Z,7.96
2017-02-20T20:56:58.963Z,8.03
2017-02-20T20:57:44.248Z,8.06
2017-02-20T20:58:28.244Z,8.09
2017-02-20T20:59:08.712Z,8.03
2017-02-20T20:59:49.815Z,7.99
2017-02-20T21:00:30.855Z,8.03
2017-02-20T21:01:11.285Z,8.03
2017-02-20T21:01:52.525Z,8.11
2017-02-20T21:02:32.966Z,8.03
2017-02-20T21:03:13.510Z,8.05
2017-02-20T21:03:53.998Z,8.11
2017-02-20T21:04:34.935Z,8.02
2017-02-20T21:05:15.422Z,8.01
2017-02-20T21:05:57.317Z,8.06
2017-02-20T21:06:38.223Z,8.08
2017-02-20T21:07:18.705Z,8.02
2017-02-20T21:07:59.140Z,8.08
2017-02-20T21:08:41.360Z,8.05
2017-02-20T21:09:21.767Z,8.09
2017-02-20T21:10:02.266Z,8.09
2017-02-20T21:10:43.489Z,8.06
2017-02-20T21:12:35.342Z,8.13
2017-02-20T21:13:21.336Z,8.13
2017-02-20T21:14:10.804Z,8.11
2017-02-20T21:14:59.024Z,8.11
2017-02-20T21:15:46.105Z,8.09
2017-02-20T21:16:34.161Z,8.08
2017-02-20T21:17:18.124Z,8.18
2017-02-20T21:18:00.086Z,8.16
2017-02-20T21:18:43.483Z,8.08
2017-02-20T21:19:26.104Z,8.06
2017-02-20T21:20:10.109Z,8.17
2017-02-20T21:20:52.443Z,8.09
2017-02-20T21:21:36.364Z,7.99
2017-02-20T21:22:20.146Z,8.14
2017-02-20T21:23:06.146Z,8.13
2017-02-20T21:23:57.122Z,8.16
2017-02-20T21:24:39.515Z,8.18
2017-02-20T21:25:22.615Z,8.05
2017-02-20T21:26:04.186Z,8.13
2017-02-20T21:26:46.496Z,8.11
2017-02-20T21:27:33.300Z,8.06
2017-02-20T21:28:19.198Z,8.13
2017-02-20T21:30:36.299Z,8.09
2017-02-20T21:31:23.086Z,8.13
2017-02-20T21:32:11.650Z,8.17
2017-02-20T21:34:33.602Z,8.14
2017-02-20T21:35:19.463Z,8.09
2017-02-20T21:36:07.738Z,8.18
2017-02-20T21:36:56.196Z,8.08
2017-02-20T21:37:45.233Z,8.14
2017-02-20T21:38:33.586Z,8.09
2017-02-20T21:39:22.327Z,8.08
2017-02-20T21:40:10.839Z,8.17
2017-02-20T21:40:55.306Z,8.16
2017-02-20T21:41:36.367Z,8.21
2017-02-20T21:42:17.606Z,8.21
2017-02-20T21:42:58.065Z,8.11
2017-02-20T21:43:39.232Z,8.17
2017-02-20T21:44:19.687Z,8.05
2017-02-20T21:45:00.099Z,8.17
2017-02-20T21:45:40.503Z,8.14
2017-02-20T21:46:20.973Z,8.17
2017-02-20T21:47:01.400Z,8.09
2017-02-20T21:47:42.726Z,8.17
2017-02-20T21:48:23.090Z,8.16
2017-02-20T21:49:05.157Z,8.2
2017-02-20T21:49:45.516Z,8.26
2017-02-20T21:50:25.964Z,8.18
2017-02-20T21:52:20.979Z,8.16
2017-02-20T21:53:09.355Z,8.14
2017-02-20T21:53:58.123Z,8.23
2017-02-20T21:54:46.489Z,8.17
2017-02-20T21:55:35.183Z,8.18
2017-02-20T21:56:23.944Z,8.13
2017-02-20T21:57:12.478Z,8.17
2017-02-20T21:57:59.912Z,8.14
2017-02-20T21:58:48.863Z,8.17
2017-02-20T21:59:37.040Z,8.18
2017-02-20T22:00:25.426Z,8.26
2017-02-20T22:01:13.957Z,8.23
2017-02-20T22:05:07.607Z,8.24
2017-02-20T22:05:56.351Z,8.18
2017-02-20T22:06:45.109Z,8.17
2017-02-20T22:07:32.744Z,8.2
2017-02-20T22:08:20.256Z,8.27
2017-02-20T22:09:08.737Z,8.21
2017-02-20T22:09:57.179Z,8.21
2017-02-20T22:10:46.178Z,8.23
2017-02-20T22:11:34.236Z,8.2
2017-02-20T22:12:23.116Z,8.28
2017-02-20T22:13:11.593Z,8.28
2017-02-20T22:14:00.528Z,8.26
2017-02-20T22:14:49.051Z,8.28
2017-02-20T22:15:37.979Z,8.24
2017-02-20T22:16:26.315Z,8.27
2017-02-20T22:17:15.110Z,8.24
2017-02-20T22:18:03.654Z,8.21
2017-02-20T22:18:51.997Z,8.21
2017-02-20T22:19:40.735Z,8.23
2017-02-20T22:20:27.203Z,8.31
2017-02-20T22:21:07.655Z,8.26
2017-02-20T22:21:48.102Z,8.23
2017-02-20T22:22:28.545Z,8.35
2017-02-20T22:23:08.977Z,8.31
2017-02-20T22:23:49.960Z,8.28
2017-02-20T22:24:30.450Z,8.28
2017-02-20T22:25:10.844Z,8.27
2017-02-20T22:25:51.261Z,8.31
2017-02-20T22:26:31.642Z,8.35
2017-02-20T22:27:13.848Z,8.28
2017-02-20T22:27:54.269Z,8.31
2017-02-20T22:28:34.665Z,8.32
2017-02-20T22:29:15.111Z,8.32
2017-02-20T22:29:55.986Z,8.27
2017-02-20T22:30:36.420Z,8.28
2017-02-20T22:31:16.815Z,8.28
2017-02-20T22:31:57.188Z,8.35
2017-02-20T22:32:38.679Z,8.36
2017-02-20T22:33:19.017Z,8.36
2017-02-20T22:33:59.442Z,8.26
2017-02-20T22:34:39.854Z,8.24
2017-02-20T22:35:20.238Z,8.31
2017-02-20T22:36:01.484Z,8.35
2017-02-20T22:36:42.488Z,8.27
2017-02-20T22:37:22.946Z,8.38
2017-02-20T22:38:05.177Z,8.36
2017-02-20T22:38:45.616Z,8.36
2017-02-20T22:39:26.011Z,8.41
2017-02-20T22:40:06.500Z,8.35
2017-02-20T22:40:46.911Z,8.35
2017-02-20T22:41:27.396Z,8.32
2017-02-20T22:42:07.795Z,8.27
2017-02-20T22:42:48.995Z,8.36
2017-02-20T22:43:32.244Z,8.36
2017-02-20T22:44:12.525Z,8.36
2017-02-20T22:44:54.810Z,8.39
2017-02-20T22:45:35.267Z,8.41
2017-02-20T22:46:15.630Z,8.39
2017-02-20T22:47:02.149Z,8.39
2017-02-20T22:48:03.696Z,8.38
2017-02-20T22:48:45.286Z,8.36
2017-02-20T22:49:25.730Z,8.35
2017-02-20T22:50:07.916Z,8.42
2017-02-20T22:50:50.249Z,8.44
2017-02-20T22:51:33.359Z,8.44
2017-02-20T22:52:13.833Z,8.42
2017-02-20T22:52:54.213Z,8.44
2017-02-20T22:53:34.663Z,8.44
2017-02-20T22:54:18.665Z,8.32
2017-02-20T22:54:59.148Z,8.39
2017-02-20T22:55:39.609Z,8.42
2017-02-20T22:56:21.827Z,8.36
2017-02-20T22:57:02.327Z,8.39
2017-02-20T22:57:44.469Z,8.44
2017-02-20T22:58:24.973Z,8.45
2017-02-20T22:59:05.374Z,8.34
2017-02-20T22:59:45.967Z,8.45
2017-02-20T23:00:29.047Z,8.41
2017-02-20T23:01:11.261Z,8.35
